Terminal Aerodrome Forecast
Issued by NWS Portland, OR

Home | Current Version | Previous Version | Text Only | Print | Product List | Glossary On
Versions: 1 2 3 4 5 6 7 8 9 10 11 12
000
FTUS46 KPQR 191144
TAFAST
TAF
KAST 191144Z 1912/2012 13003KT P6SM OVC060
     FM191800 18018G28KT P6SM SCT025 OVC050
     FM192200 19022G32KT 5SM -RA SCT015 OVC025
     FM200300 21022G32KT 3SM -RA SCT007 OVC015
     FM200700 21011KT P6SM -RA OVC015=

USA.gov is the U.S. government's official web portal to all federal, state and local government web resources and services.